Terminal Aerodrome Forecast
Issued by NWS

Home | Current Version | Previous Version | Graphics & Text | Print | Product List | Glossary Off
Versions: 1 2 3 4 5 6 7 8 9 10 11 12 13 14 15 16 17 18 19 20 21 22 23 24 25 26 27 28

000
FTUS43 KDDC 021120
TAFGCK
TAF
KGCK 021120Z 0212/0312 03008KT P6SM VCTS BKN080CB
     FM021500 05010KT P6SM SCT080 BKN120
     FM021800 12012KT P6SM VCTS BKN050CB
     FM022300 11008KT P6SM SCT050 BKN150=

USA.gov is the U.S. government's official web portal to all federal, state and local government web resources and services.